sensor_id;sensor_type;location;lat;lon;timestamp;P1;durP1;ratioP1;P2;durP2;ratioP2
40815;SDS011;26535;48.788;9.214;2024-01-27T00:00:17;7.05;;;2.70;;
40815;SDS011;26535;48.788;9.214;2024-01-27T00:02:43;10.25;;;2.70;;
40815;SDS011;26535;48.788;9.214;2024-01-27T00:05:09;7.53;;;3.05;;
40815;SDS011;26535;48.788;9.214;2024-01-27T00:07:35;8.82;;;3.63;;
40815;SDS011;26535;48.788;9.214;2024-01-27T00:10:01;8.57;;;3.10;;
40815;SDS011;26535;48.788;9.214;2024-01-27T00:12:27;7.45;;;3.30;;
40815;SDS011;26535;48.788;9.214;2024-01-27T00:14:53;9.05;;;2.80;;
40815;SDS011;26535;48.788;9.214;2024-01-27T00:17:19;9.23;;;2.85;;
40815;SDS011;26535;48.788;9.214;2024-01-27T00:19:49;8.27;;;2.97;;
40815;SDS011;26535;48.788;9.214;2024-01-27T00:22:15;9.75;;;3.47;;
40815;SDS011;26535;48.788;9.214;2024-01-27T00:24:42;5.70;;;3.60;;
40815;SDS011;26535;48.788;9.214;2024-01-27T00:27:08;9.07;;;3.35;;
40815;SDS011;26535;48.788;9.214;2024-01-27T00:29:34;7.10;;;2.85;;
40815;SDS011;26535;48.788;9.214;2024-01-27T00:32:00;7.25;;;2.63;;
40815;SDS011;26535;48.788;9.214;2024-01-27T00:34:25;8.35;;;2.97;;
40815;SDS011;26535;48.788;9.214;2024-01-27T00:36:52;9.35;;;3.47;;
40815;SDS011;26535;48.788;9.214;2024-01-27T00:39:17;5.95;;;3.00;;
40815;SDS011;26535;48.788;9.214;2024-01-27T00:41:44;7.65;;;3.30;;
40815;SDS011;26535;48.788;9.214;2024-01-27T00:44:10;6.97;;;2.88;;
40815;SDS011;26535;48.788;9.214;2024-01-27T00:46:36;6.00;;;3.05;;
40815;SDS011;26535;48.788;9.214;2024-01-27T00:49:03;7.00;;;2.85;;
40815;SDS011;26535;48.788;9.214;2024-01-27T00:51:28;6.05;;;2.80;;
40815;SDS011;26535;48.788;9.214;2024-01-27T00:53:54;8.38;;;3.15;;
40815;SDS011;26535;48.788;9.214;2024-01-27T00:56:23;6.45;;;2.83;;
40815;SDS011;26535;48.788;9.214;2024-01-27T00:58:49;9.65;;;3.30;;
40815;SDS011;26535;48.788;9.214;2024-01-27T01:01:15;9.70;;;3.45;;
40815;SDS011;26535;48.788;9.214;2024-01-27T01:03:40;10.82;;;3.13;;
40815;SDS011;26535;48.788;9.214;2024-01-27T01:06:06;6.85;;;3.17;;
40815;SDS011;26535;48.788;9.214;2024-01-27T01:08:32;7.43;;;3.20;;
40815;SDS011;26535;48.788;9.214;2024-01-27T01:10:58;9.07;;;3.22;;
40815;SDS011;26535;48.788;9.214;2024-01-27T01:13:23;7.90;;;3.80;;
40815;SDS011;26535;48.788;9.214;2024-01-27T01:15:49;15.10;;;5.95;;
40815;SDS011;26535;48.788;9.214;2024-01-27T01:18:15;20.27;;;9.48;;
40815;SDS011;26535;48.788;9.214;2024-01-27T01:20:41;17.13;;;8.85;;
40815;SDS011;26535;48.788;9.214;2024-01-27T01:23:07;10.15;;;4.75;;
40815;SDS011;26535;48.788;9.214;2024-01-27T01:25:33;7.22;;;3.10;;
40815;SDS011;26535;48.788;9.214;2024-01-27T01:27:59;9.68;;;3.70;;
40815;SDS011;26535;48.788;9.214;2024-01-27T01:30:24;8.93;;;3.33;;
40815;SDS011;26535;48.788;9.214;2024-01-27T01:32:50;13.13;;;4.15;;
40815;SDS011;26535;48.788;9.214;2024-01-27T01:35:17;11.13;;;4.70;;
40815;SDS011;26535;48.788;9.214;2024-01-27T01:37:42;11.02;;;5.07;;
40815;SDS011;26535;48.788;9.214;2024-01-27T01:40:14;8.32;;;4.22;;
40815;SDS011;26535;48.788;9.214;2024-01-27T01:42:41;12.73;;;4.45;;
40815;SDS011;26535;48.788;9.214;2024-01-27T01:45:07;8.48;;;4.00;;
40815;SDS011;26535;48.788;9.214;2024-01-27T01:47:35;11.32;;;3.70;;
40815;SDS011;26535;48.788;9.214;2024-01-27T01:50:01;7.53;;;3.40;;
40815;SDS011;26535;48.788;9.214;2024-01-27T01:52:28;10.00;;;3.58;;
40815;SDS011;26535;48.788;9.214;2024-01-27T01:54:54;11.52;;;4.15;;
40815;SDS011;26535;48.788;9.214;2024-01-27T01:57:19;7.85;;;3.33;;
40815;SDS011;26535;48.788;9.214;2024-01-27T01:59:45;8.45;;;3.33;;
40815;SDS011;26535;48.788;9.214;2024-01-27T02:02:12;7.60;;;3.25;;
40815;SDS011;26535;48.788;9.214;2024-01-27T02:07:11;9.38;;;3.30;;
40815;SDS011;26535;48.788;9.214;2024-01-27T02:09:37;12.20;;;3.65;;
40815;SDS011;26535;48.788;9.214;2024-01-27T02:12:03;8.13;;;3.30;;
40815;SDS011;26535;48.788;9.214;2024-01-27T02:14:29;8.52;;;3.08;;
40815;SDS011;26535;48.788;9.214;2024-01-27T02:16:55;10.70;;;3.40;;
40815;SDS011;26535;48.788;9.214;2024-01-27T02:19:25;6.57;;;2.67;;
40815;SDS011;26535;48.788;9.214;2024-01-27T02:21:51;9.52;;;3.17;;
40815;SDS011;26535;48.788;9.214;2024-01-27T02:24:20;6.50;;;3.00;;
40815;SDS011;26535;48.788;9.214;2024-01-27T02:26:45;10.13;;;3.38;;
40815;SDS011;26535;48.788;9.214;2024-01-27T02:29:11;7.47;;;3.30;;
40815;SDS011;26535;48.788;9.214;2024-01-27T02:31:37;7.70;;;3.50;;
40815;SDS011;26535;48.788;9.214;2024-01-27T02:34:03;8.25;;;3.45;;
40815;SDS011;26535;48.788;9.214;2024-01-27T02:36:29;9.25;;;3.22;;
40815;SDS011;26535;48.788;9.214;2024-01-27T02:38:54;9.80;;;3.20;;
40815;SDS011;26535;48.788;9.214;2024-01-27T02:41:20;6.95;;;2.95;;
40815;SDS011;26535;48.788;9.214;2024-01-27T02:43:46;13.82;;;3.83;;
40815;SDS011;26535;48.788;9.214;2024-01-27T02:46:12;10.23;;;3.42;;
40815;SDS011;26535;48.788;9.214;2024-01-27T02:48:43;8.50;;;3.65;;
40815;SDS011;26535;48.788;9.214;2024-01-27T02:51:09;7.57;;;3.40;;
40815;SDS011;26535;48.788;9.214;2024-01-27T02:53:36;11.05;;;3.85;;
40815;SDS011;26535;48.788;9.214;2024-01-27T02:56:02;7.13;;;3.45;;
40815;SDS011;26535;48.788;9.214;2024-01-27T02:58:31;7.97;;;3.40;;
40815;SDS011;26535;48.788;9.214;2024-01-27T03:01:00;12.88;;;4.20;;
40815;SDS011;26535;48.788;9.214;2024-01-27T03:03:25;7.45;;;3.35;;
40815;SDS011;26535;48.788;9.214;2024-01-27T03:05:51;9.38;;;3.60;;
40815;SDS011;26535;48.788;9.214;2024-01-27T03:08:17;9.88;;;3.17;;
40815;SDS011;26535;48.788;9.214;2024-01-27T03:10:43;11.32;;;3.63;;
40815;SDS011;26535;48.788;9.214;2024-01-27T03:13:09;6.32;;;2.95;;
40815;SDS011;26535;48.788;9.214;2024-01-27T03:15:35;8.65;;;3.30;;
40815;SDS011;26535;48.788;9.214;2024-01-27T03:18:03;8.63;;;3.05;;
40815;SDS011;26535;48.788;9.214;2024-01-27T03:20:29;10.32;;;3.38;;
40815;SDS011;26535;48.788;9.214;2024-01-27T03:22:56;7.63;;;3.63;;
40815;SDS011;26535;48.788;9.214;2024-01-27T03:25:23;8.55;;;3.20;;
40815;SDS011;26535;48.788;9.214;2024-01-27T03:27:51;8.20;;;3.10;;
40815;SDS011;26535;48.788;9.214;2024-01-27T03:30:17;6.28;;;2.95;;
40815;SDS011;26535;48.788;9.214;2024-01-27T03:32:43;8.40;;;3.00;;
40815;SDS011;26535;48.788;9.214;2024-01-27T03:35:09;9.20;;;2.70;;
40815;SDS011;26535;48.788;9.214;2024-01-27T03:37:38;5.97;;;2.50;;
40815;SDS011;26535;48.788;9.214;2024-01-27T03:40:05;8.88;;;2.95;;
40815;SDS011;26535;48.788;9.214;2024-01-27T03:42:31;10.25;;;2.75;;
40815;SDS011;26535;48.788;9.214;2024-01-27T03:44:58;8.52;;;3.47;;
40815;SDS011;26535;48.788;9.214;2024-01-27T03:47:23;8.27;;;2.90;;
40815;SDS011;26535;48.788;9.214;2024-01-27T03:49:49;7.22;;;2.95;;
40815;SDS011;26535;48.788;9.214;2024-01-27T03:52:16;7.38;;;3.05;;
40815;SDS011;26535;48.788;9.214;2024-01-27T03:54:42;12.07;;;3.53;;
40815;SDS011;26535;48.788;9.214;2024-01-27T03:57:08;9.38;;;3.38;;
40815;SDS011;26535;48.788;9.214;2024-01-27T03:59:34;10.50;;;3.10;;
40815;SDS011;26535;48.788;9.214;2024-01-27T04:02:01;10.48;;;3.45;;
40815;SDS011;26535;48.788;9.214;2024-01-27T04:04:27;9.35;;;3.38;;
40815;SDS011;26535;48.788;9.214;2024-01-27T04:06:53;7.88;;;3.42;;
40815;SDS011;26535;48.788;9.214;2024-01-27T04:09:19;7.38;;;3.25;;
40815;SDS011;26535;48.788;9.214;2024-01-27T04:11:44;9.07;;;3.63;;
40815;SDS011;26535;48.788;9.214;2024-01-27T04:14:10;8.70;;;3.40;;
40815;SDS011;26535;48.788;9.214;2024-01-27T04:16:36;10.48;;;3.50;;
40815;SDS011;26535;48.788;9.214;2024-01-27T04:19:01;8.60;;;2.92;;
40815;SDS011;26535;48.788;9.214;2024-01-27T04:21:27;9.05;;;3.17;;
40815;SDS011;26535;48.788;9.214;2024-01-27T04:23:53;9.48;;;3.13;;
40815;SDS011;26535;48.788;9.214;2024-01-27T04:26:19;10.40;;;3.40;;
40815;SDS011;26535;48.788;9.214;2024-01-27T04:28:44;9.20;;;3.75;;
40815;SDS011;26535;48.788;9.214;2024-01-27T04:31:10;12.30;;;3.83;;
40815;SDS011;26535;48.788;9.214;2024-01-27T04:33:36;9.77;;;3.78;;
40815;SDS011;26535;48.788;9.214;2024-01-27T04:36:01;8.15;;;3.67;;
40815;SDS011;26535;48.788;9.214;2024-01-27T04:38:27;7.70;;;3.72;;
40815;SDS011;26535;48.788;9.214;2024-01-27T04:40:56;10.82;;;4.20;;
40815;SDS011;26535;48.788;9.214;2024-01-27T04:43:21;10.55;;;4.18;;
40815;SDS011;26535;48.788;9.214;2024-01-27T04:45:47;11.95;;;4.40;;
40815;SDS011;26535;48.788;9.214;2024-01-27T04:48:16;14.80;;;5.10;;
40815;SDS011;26535;48.788;9.214;2024-01-27T04:50:42;18.08;;;4.90;;
40815;SDS011;26535;48.788;9.214;2024-01-27T04:53:09;14.05;;;4.85;;
40815;SDS011;26535;48.788;9.214;2024-01-27T04:55:34;16.08;;;5.28;;
40815;SDS011;26535;48.788;9.214;2024-01-27T04:58:01;10.93;;;4.50;;
40815;SDS011;26535;48.788;9.214;2024-01-27T05:00:26;16.65;;;4.80;;
40815;SDS011;26535;48.788;9.214;2024-01-27T05:02:53;16.83;;;4.85;;
40815;SDS011;26535;48.788;9.214;2024-01-27T05:05:19;11.50;;;4.60;;
40815;SDS011;26535;48.788;9.214;2024-01-27T05:07:45;16.10;;;5.10;;
40815;SDS011;26535;48.788;9.214;2024-01-27T05:10:12;14.05;;;5.45;;
40815;SDS011;26535;48.788;9.214;2024-01-27T05:12:37;11.90;;;4.40;;
40815;SDS011;26535;48.788;9.214;2024-01-27T05:15:03;12.73;;;5.07;;
40815;SDS011;26535;48.788;9.214;2024-01-27T05:17:30;14.75;;;5.28;;
40815;SDS011;26535;48.788;9.214;2024-01-27T05:19:57;14.32;;;5.43;;
40815;SDS011;26535;48.788;9.214;2024-01-27T05:22:23;13.30;;;4.47;;
40815;SDS011;26535;48.788;9.214;2024-01-27T05:24:49;16.23;;;4.90;;
40815;SDS011;26535;48.788;9.214;2024-01-27T05:27:14;11.05;;;4.57;;
40815;SDS011;26535;48.788;9.214;2024-01-27T05:29:40;15.73;;;5.13;;
40815;SDS011;26535;48.788;9.214;2024-01-27T05:32:06;12.57;;;5.60;;
40815;SDS011;26535;48.788;9.214;2024-01-27T05:34:32;13.93;;;5.63;;
40815;SDS011;26535;48.788;9.214;2024-01-27T05:36:58;14.82;;;5.20;;
40815;SDS011;26535;48.788;9.214;2024-01-27T05:39:23;13.63;;;5.40;;
40815;SDS011;26535;48.788;9.214;2024-01-27T05:41:49;13.07;;;4.97;;
40815;SDS011;26535;48.788;9.214;2024-01-27T05:44:15;11.73;;;5.53;;
40815;SDS011;26535;48.788;9.214;2024-01-27T05:46:41;13.38;;;6.15;;
40815;SDS011;26535;48.788;9.214;2024-01-27T05:49:06;17.73;;;5.95;;
40815;SDS011;26535;48.788;9.214;2024-01-27T05:51:32;9.40;;;4.82;;
40815;SDS011;26535;48.788;9.214;2024-01-27T05:53:58;10.57;;;5.22;;
40815;SDS011;26535;48.788;9.214;2024-01-27T05:56:24;9.85;;;4.97;;
40815;SDS011;26535;48.788;9.214;2024-01-27T05:58:50;11.18;;;4.47;;
40815;SDS011;26535;48.788;9.214;2024-01-27T06:01:17;13.50;;;5.05;;
40815;SDS011;26535;48.788;9.214;2024-01-27T06:03:46;8.35;;;4.45;;
40815;SDS011;26535;48.788;9.214;2024-01-27T06:06:12;12.30;;;4.85;;
40815;SDS011;26535;48.788;9.214;2024-01-27T06:08:37;8.77;;;4.43;;
40815;SDS011;26535;48.788;9.214;2024-01-27T06:11:03;10.40;;;4.45;;
40815;SDS011;26535;48.788;9.214;2024-01-27T06:13:29;10.75;;;5.00;;
40815;SDS011;26535;48.788;9.214;2024-01-27T06:15:55;13.43;;;4.55;;
40815;SDS011;26535;48.788;9.214;2024-01-27T06:18:21;12.13;;;4.82;;
40815;SDS011;26535;48.788;9.214;2024-01-27T06:20:47;14.82;;;4.40;;
40815;SDS011;26535;48.788;9.214;2024-01-27T06:23:12;10.65;;;4.32;;
40815;SDS011;26535;48.788;9.214;2024-01-27T06:25:38;9.77;;;4.25;;
40815;SDS011;26535;48.788;9.214;2024-01-27T06:28:08;11.43;;;4.65;;
40815;SDS011;26535;48.788;9.214;2024-01-27T06:30:33;12.88;;;5.32;;
40815;SDS011;26535;48.788;9.214;2024-01-27T06:32:59;10.40;;;4.90;;
40815;SDS011;26535;48.788;9.214;2024-01-27T06:35:25;11.15;;;5.45;;
40815;SDS011;26535;48.788;9.214;2024-01-27T06:37:50;17.58;;;5.03;;
40815;SDS011;26535;48.788;9.214;2024-01-27T06:40:16;11.40;;;5.18;;
40815;SDS011;26535;48.788;9.214;2024-01-27T06:42:42;16.13;;;5.35;;
40815;SDS011;26535;48.788;9.214;2024-01-27T06:45:08;10.40;;;5.15;;
40815;SDS011;26535;48.788;9.214;2024-01-27T06:47:33;15.38;;;5.75;;
40815;SDS011;26535;48.788;9.214;2024-01-27T06:49:59;13.27;;;5.88;;
40815;SDS011;26535;48.788;9.214;2024-01-27T06:52:25;10.30;;;5.80;;
40815;SDS011;26535;48.788;9.214;2024-01-27T06:54:50;13.30;;;5.32;;
40815;SDS011;26535;48.788;9.214;2024-01-27T06:57:23;13.77;;;5.55;;
40815;SDS011;26535;48.788;9.214;2024-01-27T06:59:49;10.38;;;4.88;;
40815;SDS011;26535;48.788;9.214;2024-01-27T07:02:24;11.90;;;5.40;;
40815;SDS011;26535;48.788;9.214;2024-01-27T07:04:51;13.30;;;5.88;;
40815;SDS011;26535;48.788;9.214;2024-01-27T07:07:17;13.60;;;5.55;;
40815;SDS011;26535;48.788;9.214;2024-01-27T07:09:45;13.20;;;5.70;;
40815;SDS011;26535;48.788;9.214;2024-01-27T07:12:11;12.88;;;5.85;;
40815;SDS011;26535;48.788;9.214;2024-01-27T07:14:37;13.48;;;6.32;;
40815;SDS011;26535;48.788;9.214;2024-01-27T07:17:03;16.02;;;5.82;;
40815;SDS011;26535;48.788;9.214;2024-01-27T07:19:29;19.27;;;6.63;;
40815;SDS011;26535;48.788;9.214;2024-01-27T07:21:55;16.10;;;6.00;;
40815;SDS011;26535;48.788;9.214;2024-01-27T07:24:21;14.55;;;6.13;;
40815;SDS011;26535;48.788;9.214;2024-01-27T07:26:46;14.82;;;6.57;;
40815;SDS011;26535;48.788;9.214;2024-01-27T07:29:12;16.65;;;6.85;;
40815;SDS011;26535;48.788;9.214;2024-01-27T07:31:41;15.40;;;6.22;;
40815;SDS011;26535;48.788;9.214;2024-01-27T07:34:07;13.38;;;5.47;;
40815;SDS011;26535;48.788;9.214;2024-01-27T07:36:32;14.40;;;6.00;;
40815;SDS011;26535;48.788;9.214;2024-01-27T07:38:58;18.98;;;5.80;;
40815;SDS011;26535;48.788;9.214;2024-01-27T07:41:24;14.05;;;5.00;;
40815;SDS011;26535;48.788;9.214;2024-01-27T07:43:54;12.40;;;5.80;;
40815;SDS011;26535;48.788;9.214;2024-01-27T07:46:20;15.43;;;5.40;;
40815;SDS011;26535;48.788;9.214;2024-01-27T07:48:48;8.23;;;4.43;;
40815;SDS011;26535;48.788;9.214;2024-01-27T07:51:15;13.98;;;5.45;;
40815;SDS011;26535;48.788;9.214;2024-01-27T07:53:47;11.10;;;5.32;;
40815;SDS011;26535;48.788;9.214;2024-01-27T07:56:15;13.82;;;6.32;;
40815;SDS011;26535;48.788;9.214;2024-01-27T07:58:41;17.05;;;5.65;;
40815;SDS011;26535;48.788;9.214;2024-01-27T08:01:07;16.25;;;6.18;;
40815;SDS011;26535;48.788;9.214;2024-01-27T08:03:32;11.07;;;5.85;;
40815;SDS011;26535;48.788;9.214;2024-01-27T08:05:58;13.18;;;6.25;;
40815;SDS011;26535;48.788;9.214;2024-01-27T08:08:24;17.17;;;6.15;;
40815;SDS011;26535;48.788;9.214;2024-01-27T08:10:49;19.92;;;6.55;;
40815;SDS011;26535;48.788;9.214;2024-01-27T08:13:15;16.15;;;6.10;;
40815;SDS011;26535;48.788;9.214;2024-01-27T08:15:41;13.82;;;5.25;;
40815;SDS011;26535;48.788;9.214;2024-01-27T08:18:06;10.70;;;4.65;;
40815;SDS011;26535;48.788;9.214;2024-01-27T08:20:32;9.88;;;4.70;;
40815;SDS011;26535;48.788;9.214;2024-01-27T08:22:58;12.82;;;5.38;;
40815;SDS011;26535;48.788;9.214;2024-01-27T08:25:23;12.27;;;5.45;;
40815;SDS011;26535;48.788;9.214;2024-01-27T08:27:55;10.88;;;5.22;;
40815;SDS011;26535;48.788;9.214;2024-01-27T08:30:21;13.35;;;5.50;;
40815;SDS011;26535;48.788;9.214;2024-01-27T08:32:46;11.48;;;5.05;;
40815;SDS011;26535;48.788;9.214;2024-01-27T08:35:15;12.13;;;4.68;;
40815;SDS011;26535;48.788;9.214;2024-01-27T08:37:41;10.20;;;5.15;;
40815;SDS011;26535;48.788;9.214;2024-01-27T08:40:06;10.57;;;5.40;;
40815;SDS011;26535;48.788;9.214;2024-01-27T08:42:32;9.25;;;5.70;;
40815;SDS011;26535;48.788;9.214;2024-01-27T08:44:58;11.88;;;5.18;;
40815;SDS011;26535;48.788;9.214;2024-01-27T08:47:28;9.98;;;5.47;;
40815;SDS011;26535;48.788;9.214;2024-01-27T08:49:53;9.50;;;5.00;;
40815;SDS011;26535;48.788;9.214;2024-01-27T08:52:19;9.70;;;5.97;;
40815;SDS011;26535;48.788;9.214;2024-01-27T08:54:45;9.20;;;5.05;;
40815;SDS011;26535;48.788;9.214;2024-01-27T08:57:12;9.65;;;5.38;;
40815;SDS011;26535;48.788;9.214;2024-01-27T08:59:37;10.52;;;5.40;;
40815;SDS011;26535;48.788;9.214;2024-01-27T09:02:03;9.75;;;5.72;;
40815;SDS011;26535;48.788;9.214;2024-01-27T09:04:29;11.68;;;5.00;;
40815;SDS011;26535;48.788;9.214;2024-01-27T09:06:54;9.40;;;5.47;;
40815;SDS011;26535;48.788;9.214;2024-01-27T09:09:26;9.18;;;5.65;;
40815;SDS011;26535;48.788;9.214;2024-01-27T09:11:54;10.20;;;5.95;;
40815;SDS011;26535;48.788;9.214;2024-01-27T09:14:20;10.02;;;5.82;;
40815;SDS011;26535;48.788;9.214;2024-01-27T09:16:46;8.82;;;5.30;;
40815;SDS011;26535;48.788;9.214;2024-01-27T09:19:12;10.88;;;6.20;;
40815;SDS011;26535;48.788;9.214;2024-01-27T09:21:37;9.30;;;5.50;;
40815;SDS011;26535;48.788;9.214;2024-01-27T09:24:03;15.43;;;6.10;;
40815;SDS011;26535;48.788;9.214;2024-01-27T09:26:29;9.60;;;5.60;;
40815;SDS011;26535;48.788;9.214;2024-01-27T09:28:55;11.75;;;5.70;;
40815;SDS011;26535;48.788;9.214;2024-01-27T09:31:23;10.68;;;5.80;;
40815;SDS011;26535;48.788;9.214;2024-01-27T09:33:51;9.30;;;5.20;;
40815;SDS011;26535;48.788;9.214;2024-01-27T09:36:18;10.48;;;5.20;;
40815;SDS011;26535;48.788;9.214;2024-01-27T09:38:57;10.93;;;5.45;;
40815;SDS011;26535;48.788;9.214;2024-01-27T09:41:24;11.40;;;5.68;;
40815;SDS011;26535;48.788;9.214;2024-01-27T09:43:55;10.80;;;5.60;;
40815;SDS011;26535;48.788;9.214;2024-01-27T09:46:29;10.50;;;5.60;;
40815;SDS011;26535;48.788;9.214;2024-01-27T09:48:56;9.80;;;5.28;;
40815;SDS011;26535;48.788;9.214;2024-01-27T09:51:22;11.18;;;5.13;;
40815;SDS011;26535;48.788;9.214;2024-01-27T09:53:48;10.13;;;5.75;;
40815;SDS011;26535;48.788;9.214;2024-01-27T09:56:17;8.95;;;5.13;;
40815;SDS011;26535;48.788;9.214;2024-01-27T09:58:46;10.48;;;5.07;;
40815;SDS011;26535;48.788;9.214;2024-01-27T10:01:16;12.43;;;5.53;;
40815;SDS011;26535;48.788;9.214;2024-01-27T10:03:46;12.27;;;5.47;;
40815;SDS011;26535;48.788;9.214;2024-01-27T10:06:12;11.02;;;4.80;;
40815;SDS011;26535;48.788;9.214;2024-01-27T10:08:39;8.35;;;4.72;;
40815;SDS011;26535;48.788;9.214;2024-01-27T10:13:55;9.90;;;4.95;;
40815;SDS011;26535;48.788;9.214;2024-01-27T10:16:43;8.57;;;4.82;;
40815;SDS011;26535;48.788;9.214;2024-01-27T10:19:19;11.18;;;5.05;;
40815;SDS011;26535;48.788;9.214;2024-01-27T10:21:46;9.57;;;4.82;;
40815;SDS011;26535;48.788;9.214;2024-01-27T10:24:12;9.38;;;4.70;;
40815;SDS011;26535;48.788;9.214;2024-01-27T10:26:38;9.73;;;4.93;;
40815;SDS011;26535;48.788;9.214;2024-01-27T10:29:04;10.50;;;4.88;;
40815;SDS011;26535;48.788;9.214;2024-01-27T10:31:30;9.93;;;4.82;;
40815;SDS011;26535;48.788;9.214;2024-01-27T10:34:01;9.68;;;4.47;;
40815;SDS011;26535;48.788;9.214;2024-01-27T10:36:38;8.55;;;4.90;;
40815;SDS011;26535;48.788;9.214;2024-01-27T10:39:19;10.35;;;4.68;;
40815;SDS011;26535;48.788;9.214;2024-01-27T10:41:46;14.40;;;4.88;;
40815;SDS011;26535;48.788;9.214;2024-01-27T10:44:13;12.27;;;3.95;;
40815;SDS011;26535;48.788;9.214;2024-01-27T10:46:44;9.35;;;5.22;;
40815;SDS011;26535;48.788;9.214;2024-01-27T10:49:13;6.90;;;4.35;;
40815;SDS011;26535;48.788;9.214;2024-01-27T10:51:44;15.75;;;4.20;;
40815;SDS011;26535;48.788;9.214;2024-01-27T10:54:18;7.55;;;3.53;;
40815;SDS011;26535;48.788;9.214;2024-01-27T10:56:48;10.93;;;3.45;;
40815;SDS011;26535;48.788;9.214;2024-01-27T10:59:15;12.57;;;4.03;;
40815;SDS011;26535;48.788;9.214;2024-01-27T11:01:43;9.70;;;3.63;;
40815;SDS011;26535;48.788;9.214;2024-01-27T11:04:10;10.65;;;3.55;;
40815;SDS011;26535;48.788;9.214;2024-01-27T11:06:39;9.55;;;3.22;;
40815;SDS011;26535;48.788;9.214;2024-01-27T11:09:07;8.77;;;3.78;;
40815;SDS011;26535;48.788;9.214;2024-01-27T11:11:34;9.75;;;3.40;;
40815;SDS011;26535;48.788;9.214;2024-01-27T11:14:00;7.65;;;3.53;;
40815;SDS011;26535;48.788;9.214;2024-01-27T11:16:26;8.90;;;3.30;;
40815;SDS011;26535;48.788;9.214;2024-01-27T11:18:53;7.13;;;3.33;;
40815;SDS011;26535;48.788;9.214;2024-01-27T11:21:19;8.18;;;3.25;;
40815;SDS011;26535;48.788;9.214;2024-01-27T11:23:45;10.30;;;3.35;;
40815;SDS011;26535;48.788;9.214;2024-01-27T11:26:17;9.15;;;3.53;;
40815;SDS011;26535;48.788;9.214;2024-01-27T11:28:48;5.88;;;2.70;;
40815;SDS011;26535;48.788;9.214;2024-01-27T11:31:15;6.93;;;2.75;;
40815;SDS011;26535;48.788;9.214;2024-01-27T11:33:43;8.30;;;3.05;;
40815;SDS011;26535;48.788;9.214;2024-01-27T11:36:17;8.07;;;3.15;;
40815;SDS011;26535;48.788;9.214;2024-01-27T11:38:48;7.78;;;2.92;;
40815;SDS011;26535;48.788;9.214;2024-01-27T11:41:27;7.70;;;2.55;;
40815;SDS011;26535;48.788;9.214;2024-01-27T11:44:36;6.55;;;2.47;;
40815;SDS011;26535;48.788;9.214;2024-01-27T11:47:02;10.18;;;3.20;;
40815;SDS011;26535;48.788;9.214;2024-01-27T11:49:42;6.68;;;2.38;;
40815;SDS011;26535;48.788;9.214;2024-01-27T11:52:08;5.88;;;2.60;;
40815;SDS011;26535;48.788;9.214;2024-01-27T11:54:34;9.35;;;2.95;;
40815;SDS011;26535;48.788;9.214;2024-01-27T11:57:34;7.68;;;3.03;;
40815;SDS011;26535;48.788;9.214;2024-01-27T12:00:21;10.60;;;3.03;;
40815;SDS011;26535;48.788;9.214;2024-01-27T12:02:50;7.75;;;2.60;;
40815;SDS011;26535;48.788;9.214;2024-01-27T12:05:17;8.38;;;2.70;;
40815;SDS011;26535;48.788;9.214;2024-01-27T12:10:26;8.32;;;3.08;;
40815;SDS011;26535;48.788;9.214;2024-01-27T12:12:58;7.60;;;2.38;;
40815;SDS011;26535;48.788;9.214;2024-01-27T12:16:09;8.13;;;2.47;;
40815;SDS011;26535;48.788;9.214;2024-01-27T12:18:37;8.07;;;2.20;;
40815;SDS011;26535;48.788;9.214;2024-01-27T12:21:34;7.35;;;2.20;;
40815;SDS011;26535;48.788;9.214;2024-01-27T12:24:26;6.93;;;2.40;;
40815;SDS011;26535;48.788;9.214;2024-01-27T12:26:51;7.60;;;2.63;;
40815;SDS011;26535;48.788;9.214;2024-01-27T12:29:19;7.40;;;2.58;;
40815;SDS011;26535;48.788;9.214;2024-01-27T12:31:58;7.18;;;2.28;;
40815;SDS011;26535;48.788;9.214;2024-01-27T12:34:23;6.05;;;2.40;;
40815;SDS011;26535;48.788;9.214;2024-01-27T12:36:49;6.75;;;2.40;;
40815;SDS011;26535;48.788;9.214;2024-01-27T12:39:16;6.95;;;2.65;;
40815;SDS011;26535;48.788;9.214;2024-01-27T12:44:43;6.85;;;2.55;;
40815;SDS011;26535;48.788;9.214;2024-01-27T12:47:09;7.55;;;2.60;;
40815;SDS011;26535;48.788;9.214;2024-01-27T12:49:36;6.18;;;2.28;;
40815;SDS011;26535;48.788;9.214;2024-01-27T12:52:01;7.15;;;2.13;;
40815;SDS011;26535;48.788;9.214;2024-01-27T12:54:31;5.07;;;2.22;;
40815;SDS011;26535;48.788;9.214;2024-01-27T12:57:03;5.90;;;1.98;;
40815;SDS011;26535;48.788;9.214;2024-01-27T12:59:31;5.50;;;1.95;;
40815;SDS011;26535;48.788;9.214;2024-01-27T13:05:06;8.07;;;2.65;;
40815;SDS011;26535;48.788;9.214;2024-01-27T13:07:32;7.50;;;2.58;;
40815;SDS011;26535;48.788;9.214;2024-01-27T13:10:02;7.13;;;2.30;;
40815;SDS011;26535;48.788;9.214;2024-01-27T13:12:27;8.45;;;2.35;;
40815;SDS011;26535;48.788;9.214;2024-01-27T13:15:19;7.22;;;2.00;;
40815;SDS011;26535;48.788;9.214;2024-01-27T13:18:19;6.65;;;2.08;;
40815;SDS011;26535;48.788;9.214;2024-01-27T13:21:01;6.47;;;2.20;;
40815;SDS011;26535;48.788;9.214;2024-01-27T13:23:29;6.63;;;2.65;;
40815;SDS011;26535;48.788;9.214;2024-01-27T13:25:55;5.38;;;1.80;;
40815;SDS011;26535;48.788;9.214;2024-01-27T13:28:21;6.25;;;2.03;;
40815;SDS011;26535;48.788;9.214;2024-01-27T13:30:47;5.13;;;2.00;;
40815;SDS011;26535;48.788;9.214;2024-01-27T13:33:28;4.22;;;1.73;;
40815;SDS011;26535;48.788;9.214;2024-01-27T13:45:22;8.02;;;2.10;;
40815;SDS011;26535;48.788;9.214;2024-01-27T13:55:42;8.50;;;3.53;;
40815;SDS011;26535;48.788;9.214;2024-01-27T14:02:08;7.57;;;3.40;;
40815;SDS011;26535;48.788;9.214;2024-01-27T14:04:34;10.82;;;3.50;;
40815;SDS011;26535;48.788;9.214;2024-01-27T14:13:37;10.10;;;3.17;;
40815;SDS011;26535;48.788;9.214;2024-01-27T14:18:36;6.13;;;3.25;;
40815;SDS011;26535;48.788;9.214;2024-01-27T14:21:05;11.10;;;3.63;;
40815;SDS011;26535;48.788;9.214;2024-01-27T14:23:34;9.25;;;3.47;;
40815;SDS011;26535;48.788;9.214;2024-01-27T14:26:00;10.05;;;4.00;;
40815;SDS011;26535;48.788;9.214;2024-01-27T14:28:40;10.35;;;3.88;;
40815;SDS011;26535;48.788;9.214;2024-01-27T14:31:06;8.18;;;3.30;;
40815;SDS011;26535;48.788;9.214;2024-01-27T14:33:33;9.02;;;3.30;;
40815;SDS011;26535;48.788;9.214;2024-01-27T14:35:59;7.95;;;3.13;;
40815;SDS011;26535;48.788;9.214;2024-01-27T14:38:25;8.35;;;3.05;;
40815;SDS011;26535;48.788;9.214;2024-01-27T14:40:53;9.13;;;2.92;;
40815;SDS011;26535;48.788;9.214;2024-01-27T14:43:19;8.90;;;2.85;;
40815;SDS011;26535;48.788;9.214;2024-01-27T14:45:45;6.55;;;2.67;;
40815;SDS011;26535;48.788;9.214;2024-01-27T14:48:12;6.45;;;2.33;;
40815;SDS011;26535;48.788;9.214;2024-01-27T14:50:38;6.68;;;2.60;;
40815;SDS011;26535;48.788;9.214;2024-01-27T14:53:03;10.35;;;3.53;;
40815;SDS011;26535;48.788;9.214;2024-01-27T14:55:33;8.27;;;2.65;;
40815;SDS011;26535;48.788;9.214;2024-01-27T14:57:59;6.68;;;2.40;;
40815;SDS011;26535;48.788;9.214;2024-01-27T15:00:25;10.20;;;2.40;;
40815;SDS011;26535;48.788;9.214;2024-01-27T15:02:51;6.15;;;2.25;;
40815;SDS011;26535;48.788;9.214;2024-01-27T15:05:17;7.43;;;2.63;;
40815;SDS011;26535;48.788;9.214;2024-01-27T15:07:44;7.38;;;2.45;;
40815;SDS011;26535;48.788;9.214;2024-01-27T15:10:11;7.90;;;2.25;;
40815;SDS011;26535;48.788;9.214;2024-01-27T15:12:39;6.88;;;2.25;;
40815;SDS011;26535;48.788;9.214;2024-01-27T15:15:08;7.88;;;2.67;;
40815;SDS011;26535;48.788;9.214;2024-01-27T15:21:21;6.57;;;2.45;;
40815;SDS011;26535;48.788;9.214;2024-01-27T15:23:47;6.55;;;2.20;;
40815;SDS011;26535;48.788;9.214;2024-01-27T15:26:15;4.68;;;1.70;;
40815;SDS011;26535;48.788;9.214;2024-01-27T15:28:40;7.55;;;2.40;;
40815;SDS011;26535;48.788;9.214;2024-01-27T15:31:06;5.82;;;2.25;;